createdAt,value
2023-05-04T00:02:19.139Z,100535.25
2023-05-04T00:04:47.702Z,100534.66
2023-05-04T00:07:16.293Z,100530.03
2023-05-04T00:09:46.182Z,100525.75
2023-05-04T00:12:14.600Z,100530.50
2023-05-04T00:14:42.985Z,100522.94
2023-05-04T00:17:12.726Z,100509.53
2023-05-04T00:19:42.356Z,100514.25
2023-05-04T00:22:10.943Z,100507.34
2023-05-04T00:27:25.579Z,100501.88
2023-05-04T00:29:54.363Z,100499.72
2023-05-04T00:32:22.752Z,100494.59
2023-05-04T00:34:51.216Z,100494.03
2023-05-04T00:37:19.597Z,100493.44
2023-05-04T00:39:47.968Z,100494.69
2023-05-04T00:42:16.413Z,100501.06
2023-05-04T00:44:46.702Z,100478.66
2023-05-04T00:47:16.973Z,100492.16
2023-05-04T00:49:45.538Z,100489.13
2023-05-04T00:52:15.666Z,100485.09
2023-05-04T00:54:47.716Z,100487.41
2023-05-04T00:57:18.272Z,100484.16
2023-05-04T00:59:48.445Z,100481.75
2023-05-04T01:02:16.955Z,100484.59
2023-05-04T01:04:45.984Z,100483.25
2023-05-04T01:07:23.881Z,100486.34
2023-05-04T01:10:01.166Z,100491.66
2023-05-04T01:12:37.530Z,100480.69
2023-05-04T01:15:09.867Z,100481.94
2023-05-04T01:17:38.750Z,100476.06
2023-05-04T01:20:10.368Z,100478.34
2023-05-04T01:22:40.595Z,100485.28
2023-05-04T01:25:10.692Z,100475.09
2023-05-04T01:27:48.135Z,100480.84
2023-05-04T01:30:21.757Z,100479.47
2023-05-04T01:32:51.580Z,100480.50
2023-05-04T01:35:20.428Z,100481.53
2023-05-04T01:37:50.160Z,100483.59
2023-05-04T01:40:19.867Z,100482.78
2023-05-04T01:42:48.288Z,100477.94
2023-05-04T01:45:16.700Z,100478.16
2023-05-04T01:47:46.404Z,100481.06
2023-05-04T01:50:14.808Z,100481.50
2023-05-04T01:52:43.219Z,100472.13
2023-05-04T01:55:14.077Z,100475.03
2023-05-04T01:57:42.479Z,100475.22
2023-05-04T02:00:12.475Z,100486.09
2023-05-04T02:02:44.051Z,100476.72
2023-05-04T02:05:16.718Z,100479.59
2023-05-04T02:07:45.162Z,100479.81
2023-05-04T02:10:15.109Z,100475.75
2023-05-04T02:12:43.957Z,100489.25
2023-05-04T02:15:13.002Z,100486.03
2023-05-04T02:17:41.589Z,100490.75
2023-05-04T02:20:13.111Z,100476.03
2023-05-04T02:22:44.136Z,100479.72
2023-05-04T02:25:13.878Z,100475.47
2023-05-04T02:27:42.491Z,100477.53
2023-05-04T02:30:12.450Z,100473.25
2023-05-04T02:32:41.174Z,100473.69
2023-05-04T02:35:09.997Z,100467.78
2023-05-04T02:37:38.317Z,100474.16
2023-05-04T02:40:08.528Z,100468.28
2023-05-04T02:42:38.277Z,100467.66
2023-05-04T02:45:08.650Z,100466.06
2023-05-04T02:47:37.085Z,100470.56
2023-05-04T02:50:07.233Z,100466.50
2023-05-04T02:52:35.941Z,100469.59
2023-05-04T02:55:05.250Z,100469.00
2023-05-04T02:57:33.587Z,100466.56
2023-05-04T03:00:04.571Z,100469.47
2023-05-04T03:02:33.192Z,100458.25
2023-05-04T03:05:01.612Z,100461.94
2023-05-04T03:07:30.062Z,100459.72
2023-05-04T03:09:58.447Z,100443.00
2023-05-04T03:12:26.845Z,100456.47
2023-05-04T03:14:55.227Z,100452.66
2023-05-04T03:17:25.063Z,100449.19
2023-05-04T03:19:53.459Z,100455.75
2023-05-04T03:22:21.910Z,100455.75
2023-05-04T03:24:50.400Z,100451.72
2023-05-04T03:27:19.688Z,100444.75
2023-05-04T03:29:48.070Z,100446.84
2023-05-04T03:32:16.931Z,100454.19
2023-05-04T03:34:46.865Z,100445.69
2023-05-04T03:37:16.979Z,100436.06
2023-05-04T03:39:45.542Z,100439.78
2023-05-04T03:42:13.912Z,100437.34
2023-05-04T03:44:42.307Z,100435.72
2023-05-04T03:47:10.915Z,100433.28
2023-05-04T03:49:39.267Z,100431.88
2023-05-04T03:52:09.192Z,100426.00
2023-05-04T03:54:39.197Z,100422.56
2023-05-04T03:57:07.567Z,100424.59
2023-05-04T03:59:37.652Z,100426.44
2023-05-04T04:02:07.996Z,100426.69
2023-05-04T04:04:37.247Z,100433.00
2023-05-04T04:07:05.703Z,100424.47
2023-05-04T04:09:35.575Z,100428.97
2023-05-04T04:12:04.043Z,100418.81
2023-05-04T04:14:32.367Z,100426.75
2023-05-04T04:17:00.744Z,100427.75
2023-05-04T04:19:29.152Z,100423.50
2023-05-04T04:21:59.036Z,100431.69
2023-05-04T04:24:27.449Z,100426.38
2023-05-04T04:26:57.585Z,100430.88
2023-05-04T04:29:26.150Z,100430.03
2023-05-04T04:31:54.669Z,100436.16
2023-05-04T04:34:23.843Z,100433.72
2023-05-04T04:36:52.485Z,100431.88
2023-05-04T04:39:20.830Z,100435.56
2023-05-04T04:41:49.318Z,100447.78
2023-05-04T04:44:19.892Z,100455.72
2023-05-04T04:46:48.584Z,100439.25
2023-05-04T04:49:18.025Z,100441.47
2023-05-04T04:51:48.834Z,100442.47
2023-05-04T04:54:17.247Z,100447.56
2023-05-04T04:56:46.178Z,100439.63
2023-05-04T04:59:15.024Z,100448.38
2023-05-04T05:01:44.754Z,100445.13
2023-05-04T05:04:13.237Z,100456.91
2023-05-04T05:06:41.881Z,100448.94
2023-05-04T05:09:10.631Z,100461.75
2023-05-04T05:11:38.964Z,100456.03
2023-05-04T05:14:07.552Z,100466.63
2023-05-04T05:16:35.993Z,100461.94
2023-05-04T05:19:05.929Z,100466.19
2023-05-04T05:21:34.313Z,100464.16
2023-05-04T05:24:02.920Z,100462.06
2023-05-04T05:26:31.302Z,100471.63
2023-05-04T05:28:59.744Z,100470.63
2023-05-04T05:31:28.414Z,100473.84
2023-05-04T05:33:56.918Z,100477.91
2023-05-04T05:36:27.260Z,100475.84
2023-05-04T05:38:55.629Z,100479.09
2023-05-04T05:41:24.085Z,100481.75
2023-05-04T05:43:52.437Z,100483.16
2023-05-04T05:46:20.834Z,100480.25
2023-05-04T05:48:49.216Z,100475.78
2023-05-04T05:51:17.594Z,100476.94
2023-05-04T05:53:47.303Z,100477.78
2023-05-04T05:56:15.682Z,100469.59
2023-05-04T05:58:44.031Z,100472.84
2023-05-04T06:01:13.324Z,100472.38
2023-05-04T06:03:42.398Z,100477.25
2023-05-04T06:06:11.457Z,100464.00
2023-05-04T06:08:39.833Z,100471.50
2023-05-04T06:11:09.554Z,100467.81
2023-05-04T06:13:37.879Z,100468.41
2023-05-04T06:16:06.777Z,100459.84
2023-05-04T06:18:35.135Z,100467.97
2023-05-04T06:21:04.106Z,100465.69
2023-05-04T06:23:33.032Z,100460.75
2023-05-04T06:26:01.475Z,100460.31
2023-05-04T06:28:31.200Z,100453.72
2023-05-04T06:30:59.678Z,100461.03
2023-05-04T06:33:28.142Z,100451.81
2023-05-04T06:35:56.634Z,100455.44
2023-05-04T06:38:25.174Z,100453.38
2023-05-04T06:40:53.586Z,100444.75
2023-05-04T06:43:21.994Z,100450.78
2023-05-04T06:45:51.746Z,100449.28
2023-05-04T06:48:20.123Z,100452.88
2023-05-04T06:50:48.551Z,100452.22
2023-05-04T06:53:16.902Z,100456.59
2023-05-04T06:55:45.698Z,100455.91
2023-05-04T06:58:14.151Z,100462.97
2023-05-04T07:00:43.415Z,100450.06
2023-05-04T07:03:13.179Z,100455.28
2023-05-04T07:05:42.551Z,100457.03
2023-05-04T07:08:11.018Z,100455.09
2023-05-04T07:10:39.590Z,100459.91
2023-05-04T07:13:08.266Z,100451.84
2023-05-04T07:15:36.917Z,100454.41
2023-05-04T07:18:05.416Z,100453.50
2023-05-04T07:20:35.254Z,100451.75
2023-05-04T07:23:04.000Z,100450.03
2023-05-04T07:25:32.968Z,100445.66
2023-05-04T07:28:05.258Z,100440.25
2023-05-04T07:30:33.581Z,100433.22
2023-05-04T07:33:02.185Z,100431.78
2023-05-04T07:35:30.598Z,100425.56
2023-05-04T07:38:00.288Z,100420.94
2023-05-04T07:40:28.740Z,100412.81
2023-05-04T07:42:57.129Z,100408.66
2023-05-04T07:45:25.546Z,100407.81
2023-05-04T07:47:53.924Z,100411.16
2023-05-04T07:50:22.366Z,100400.38
2023-05-04T07:52:52.301Z,100409.13
2023-05-04T07:55:22.553Z,100403.44
2023-05-04T07:57:50.974Z,100402.00
2023-05-04T08:00:21.503Z,100403.28
2023-05-04T08:02:50.305Z,100394.91
2023-05-04T08:05:18.954Z,100404.91
2023-05-04T08:07:47.367Z,100390.97
2023-05-04T08:10:15.797Z,100389.28
2023-05-04T08:12:45.693Z,100381.72
2023-05-04T08:15:14.722Z,100379.44
2023-05-04T08:17:43.140Z,100373.47
2023-05-04T08:20:13.030Z,100365.59
2023-05-04T08:22:41.416Z,100358.56
2023-05-04T08:25:11.222Z,100360.34
2023-05-04T08:27:40.304Z,100364.78
2023-05-04T08:30:11.514Z,100367.34
2023-05-04T08:32:40.044Z,100355.75
2023-05-04T08:35:08.989Z,100354.00
2023-05-04T08:37:37.386Z,100356.28
2023-05-04T08:40:07.099Z,100357.75
2023-05-04T08:42:35.715Z,100347.78
2023-05-04T08:45:04.227Z,100351.34
2023-05-04T08:47:34.382Z,100345.63
2023-05-04T08:50:02.884Z,100335.84
2023-05-04T08:52:32.233Z,100341.81
2023-05-04T08:55:01.051Z,100345.13
2023-05-04T08:57:29.810Z,100338.25
2023-05-04T08:59:58.738Z,100341.81
2023-05-04T09:02:28.433Z,100354.47
2023-05-04T09:04:58.330Z,100329.66
2023-05-04T09:07:26.851Z,100324.94
2023-05-04T09:09:57.091Z,100323.94
2023-05-04T09:12:28.499Z,100324.00
2023-05-04T09:14:57.000Z,100323.22
2023-05-04T09:17:27.861Z,100305.34
2023-05-04T09:20:04.083Z,100316.06
2023-05-04T09:22:33.503Z,100314.28
2023-05-04T09:25:11.413Z,100310.84
2023-05-04T09:27:42.751Z,100308.19
2023-05-04T09:30:13.868Z,100319.97
2023-05-04T09:32:47.445Z,100316.78
2023-05-04T09:35:31.920Z,100306.88
2023-05-04T09:38:01.516Z,100298.34
2023-05-04T09:40:33.700Z,100295.94
2023-05-04T09:43:02.692Z,100291.91
2023-05-04T09:45:41.233Z,100294.91
2023-05-04T09:48:21.112Z,100292.72
2023-05-04T09:50:53.819Z,100289.78
2023-05-04T09:53:25.073Z,100264.03
2023-05-04T09:56:08.163Z,100280.91
2023-05-04T09:58:37.294Z,100296.47
2023-05-04T10:01:07.017Z,100272.88
2023-05-04T10:03:36.318Z,100272.31
2023-05-04T10:06:09.199Z,100262.09
2023-05-04T10:08:38.759Z,100281.09
2023-05-04T10:11:07.878Z,100272.81
2023-05-04T10:13:36.401Z,100266.34
2023-05-04T10:16:24.310Z,100265.22
2023-05-04T10:19:42.547Z,100255.84
2023-05-04T10:22:37.636Z,100259.56
2023-05-04T10:25:45.629Z,100264.91
2023-05-04T10:28:32.765Z,100261.09
2023-05-04T10:31:01.342Z,100261.84
2023-05-04T10:33:39.898Z,100259.16
2023-05-04T10:36:09.499Z,100249.69
2023-05-04T10:38:41.378Z,100245.38
2023-05-04T10:41:17.000Z,100239.13
2023-05-04T10:43:49.005Z,100244.44
2023-05-04T10:46:19.585Z,100243.34
2023-05-04T10:48:48.059Z,100243.81
2023-05-04T10:51:20.854Z,100245.09
2023-05-04T10:53:51.276Z,100246.69
2023-05-04T10:56:24.467Z,100236.97
2023-05-04T10:58:53.810Z,100237.69
2023-05-04T11:01:23.103Z,100230.69
2023-05-04T11:03:53.290Z,100218.31
2023-05-04T11:06:24.553Z,100213.97
2023-05-04T11:09:06.342Z,100201.81
2023-05-04T11:11:38.255Z,100203.16
2023-05-04T11:14:10.794Z,100204.44
2023-05-04T11:16:39.288Z,100196.34
2023-05-04T11:19:12.591Z,100198.16
2023-05-04T11:21:42.266Z,100189.53
2023-05-04T11:24:12.806Z,100191.06
2023-05-04T11:26:49.319Z,100179.72
2023-05-04T11:29:19.164Z,100177.00
2023-05-04T11:31:55.870Z,100176.13
2023-05-04T11:35:17.708Z,100162.16
2023-05-04T11:37:49.743Z,100164.50
2023-05-04T11:40:29.590Z,100157.75
2023-05-04T11:43:01.977Z,100161.69
2023-05-04T11:45:32.491Z,100152.53
2023-05-04T11:48:01.991Z,100158.66
2023-05-04T11:50:31.542Z,100145.69
2023-05-04T11:53:08.975Z,100145.91
2023-05-04T11:55:39.170Z,100142.94
2023-05-04T11:58:09.559Z,100145.28
2023-05-04T12:00:40.151Z,100132.09
2023-05-04T12:03:12.939Z,100139.28
2023-05-04T12:05:48.189Z,100140.00
2023-05-04T12:08:27.507Z,100131.84
2023-05-04T12:11:14.799Z,100128.28
2023-05-04T12:13:45.817Z,100127.91
2023-05-04T12:16:16.579Z,100131.34
2023-05-04T12:18:47.453Z,100123.19
2023-05-04T12:21:20.284Z,100131.16
2023-05-04T12:23:49.158Z,100126.78
2023-05-04T12:26:19.801Z,100117.06
2023-05-04T12:28:48.964Z,100117.28
2023-05-04T12:31:18.911Z,100107.19
2023-05-04T12:33:47.298Z,100117.38
2023-05-04T12:36:15.777Z,100119.53
2023-05-04T12:38:44.145Z,100112.44
2023-05-04T12:41:12.697Z,100101.34
2023-05-04T12:43:43.008Z,100098.38
2023-05-04T12:46:11.887Z,100110.75
2023-05-04T12:48:40.379Z,100094.78
2023-05-04T12:51:08.774Z,100111.16
2023-05-04T12:53:37.117Z,100101.41
2023-05-04T12:56:06.933Z,100092.72
2023-05-04T12:58:35.269Z,100089.13
2023-05-04T13:01:05.270Z,100087.75
2023-05-04T13:03:34.088Z,100090.31
2023-05-04T13:06:02.571Z,100088.34
2023-05-04T13:08:31.120Z,100073.19
2023-05-04T13:10:59.461Z,100083.06
2023-05-04T13:13:29.602Z,100077.88
2023-05-04T13:15:58.425Z,100080.16
2023-05-04T13:18:29.442Z,100077.66
2023-05-04T13:20:58.089Z,100084.88
2023-05-04T13:23:26.509Z,100070.00
2023-05-04T13:25:55.611Z,100062.13
2023-05-04T13:28:24.079Z,100053.44
2023-05-04T13:30:53.126Z,100050.91
2023-05-04T13:33:29.419Z,100044.63
2023-05-04T13:36:03.572Z,100041.31
2023-05-04T13:38:32.274Z,100037.41
2023-05-04T13:41:00.606Z,100031.41
2023-05-04T13:47:18.871Z,100032.09
2023-05-04T13:49:49.069Z,100016.59
2023-05-04T13:52:18.822Z,100016.47
2023-05-04T13:54:47.253Z,100022.38
2023-05-04T13:57:15.659Z,100018.75
2023-05-04T13:59:51.598Z,100016.25
2023-05-04T14:02:39.221Z,100004.22
2023-05-04T14:05:08.688Z,100008.41
2023-05-04T14:07:38.913Z,99992.41
2023-05-04T14:10:08.872Z,99983.09
2023-05-04T14:12:37.312Z,99995.66
2023-05-04T14:15:07.147Z,99994.72
2023-05-04T14:17:35.797Z,99977.63
2023-05-04T14:20:05.908Z,99975.56
2023-05-04T14:22:37.268Z,99970.97
2023-05-04T14:25:09.379Z,99960.66
2023-05-04T14:27:37.930Z,99957.34
2023-05-04T14:30:09.505Z,99956.75
2023-05-04T14:32:38.047Z,99942.91
2023-05-04T14:35:10.193Z,99942.75
2023-05-04T14:37:40.634Z,99942.47
2023-05-04T14:40:11.578Z,99944.38
2023-05-04T14:42:40.418Z,99943.44
2023-05-04T14:45:10.716Z,99937.41
2023-05-04T14:47:39.407Z,99937.09
2023-05-04T14:50:09.232Z,99931.69
2023-05-04T14:52:38.024Z,99934.09
2023-05-04T14:55:07.572Z,99934.88
2023-05-04T14:57:37.474Z,99930.28
2023-05-04T15:00:09.344Z,99924.09
2023-05-04T15:02:39.235Z,99919.47
2023-05-04T15:05:10.373Z,99910.88
2023-05-04T15:07:38.876Z,99916.59
2023-05-04T15:10:10.162Z,99917.38
2023-05-04T15:12:40.605Z,99919.63
2023-05-04T15:15:10.384Z,99928.19
2023-05-04T15:17:38.833Z,99910.88
2023-05-04T15:20:09.977Z,99915.47
2023-05-04T15:22:38.610Z,99923.59
2023-05-04T15:25:07.931Z,99925.66
2023-05-04T15:27:36.607Z,99924.88
2023-05-04T15:30:09.002Z,99918.69
2023-05-04T15:32:37.605Z,99918.19
2023-05-04T15:35:07.711Z,99915.47
2023-05-04T15:37:36.104Z,99926.28
2023-05-04T15:40:06.219Z,99918.97
2023-05-04T15:42:34.781Z,99909.78
2023-05-04T15:45:03.241Z,99908.66
2023-05-04T15:47:33.333Z,99906.28
2023-05-04T15:50:01.704Z,99912.47
2023-05-04T15:52:30.107Z,99906.28
2023-05-04T15:55:04.251Z,99902.75
2023-05-04T15:57:41.199Z,99896.28
2023-05-04T16:00:10.855Z,99898.97
2023-05-04T16:02:40.739Z,99893.88
2023-05-04T16:05:10.308Z,99891.16
2023-05-04T16:07:38.729Z,99894.66
2023-05-04T16:10:09.210Z,99892.44
2023-05-04T16:12:39.548Z,99884.19
2023-05-04T16:15:08.841Z,99879.72
2023-05-04T16:17:37.283Z,99873.81
2023-05-04T16:20:09.971Z,99869.03
2023-05-04T16:22:38.868Z,99868.25
2023-05-04T16:25:10.303Z,99860.94
2023-05-04T16:27:39.894Z,99876.34
2023-05-04T16:30:10.287Z,99868.06
2023-05-04T16:32:38.947Z,99875.38
2023-05-04T16:35:10.131Z,99871.09
2023-05-04T16:37:39.549Z,99873.00
2023-05-04T16:40:14.651Z,99865.53
2023-05-04T16:42:43.176Z,99866.59
2023-05-04T16:45:13.567Z,99862.16
2023-05-04T16:47:42.371Z,99867.56
2023-05-04T16:50:14.318Z,99863.88
2023-05-04T16:52:43.163Z,99861.97
2023-05-04T16:55:12.673Z,99863.09
2023-05-04T16:57:41.323Z,99860.72
2023-05-04T17:00:13.244Z,99852.44
2023-05-04T17:02:41.664Z,99847.34
2023-05-04T17:05:12.030Z,99852.72
2023-05-04T17:07:43.306Z,99844.97
2023-05-04T17:10:12.295Z,99855.25
2023-05-04T17:12:40.835Z,99841.59
2023-05-04T17:15:11.243Z,99847.13
2023-05-04T17:17:39.686Z,99844.25
2023-05-04T17:20:14.903Z,99847.56
2023-05-04T17:22:44.160Z,99847.69
2023-05-04T17:25:13.344Z,99844.47
2023-05-04T17:27:43.815Z,99839.69
2023-05-04T17:30:14.025Z,99841.94
2023-05-04T17:32:42.499Z,99829.06
2023-05-04T17:35:24.454Z,99839.34
2023-05-04T17:37:58.057Z,99845.34
2023-05-04T17:40:27.791Z,99846.78
2023-05-04T17:42:56.823Z,99854.06
2023-05-04T17:45:25.624Z,99857.41
2023-05-04T17:47:54.244Z,99857.22
2023-05-04T17:50:24.646Z,99850.84
2023-05-04T17:52:54.264Z,99858.44
2023-05-04T17:55:24.762Z,99852.88
2023-05-04T18:00:22.800Z,99867.09
2023-05-04T18:02:51.306Z,99860.72
2023-05-04T18:05:20.029Z,99865.09
2023-05-04T18:07:49.856Z,99871.44
2023-05-04T18:10:18.356Z,99866.97
2023-05-04T18:12:46.905Z,99867.06
2023-05-04T18:15:16.489Z,99878.72
2023-05-04T18:17:45.062Z,99885.84
2023-05-04T18:20:13.774Z,99883.56
2023-05-04T18:22:42.225Z,99884.47
2023-05-04T18:25:12.194Z,99893.47
2023-05-04T18:27:40.820Z,99894.69
2023-05-04T18:30:11.277Z,99887.78
2023-05-04T18:32:39.713Z,99895.22
2023-05-04T18:35:09.238Z,99885.63
2023-05-04T18:37:37.595Z,99886.81
2023-05-04T18:40:08.193Z,99902.31
2023-05-04T18:42:38.117Z,99903.47
2023-05-04T18:45:08.105Z,99904.69
2023-05-04T18:47:36.937Z,99914.75
2023-05-04T18:50:06.283Z,99916.72
2023-05-04T18:52:35.029Z,99915.25
2023-05-04T18:55:03.411Z,99920.22
2023-05-04T18:57:31.729Z,99925.22
2023-05-04T19:00:01.443Z,99926.38
2023-05-04T19:02:31.594Z,99919.47
2023-05-04T19:05:00.153Z,99926.34
2023-05-04T19:07:28.516Z,99928.34
2023-05-04T19:09:56.877Z,99937.56
2023-05-04T19:12:25.361Z,99933.66
2023-05-04T19:14:54.616Z,99942.09
2023-05-04T19:17:24.478Z,99945.94
2023-05-04T19:19:52.928Z,99952.00
2023-05-04T19:22:21.282Z,99948.88
2023-05-04T19:24:52.369Z,99942.00
2023-05-04T19:27:20.786Z,99946.66
2023-05-04T19:29:49.176Z,99953.97
2023-05-04T19:32:24.197Z,99955.16
2023-05-04T19:34:54.828Z,99950.44
2023-05-04T19:37:23.196Z,99960.13
2023-05-04T19:39:51.729Z,99952.13
2023-05-04T19:42:20.165Z,99953.28
2023-05-04T19:44:48.573Z,99949.88
2023-05-04T19:47:17.018Z,99958.28
2023-05-04T19:49:47.729Z,99951.38
2023-05-04T19:52:17.555Z,99954.94
2023-05-04T19:54:48.454Z,99956.06
2023-05-04T19:57:16.949Z,99952.66
2023-05-04T19:59:47.077Z,99947.63
2023-05-04T20:02:15.933Z,99957.94
2023-05-04T20:04:44.370Z,99948.84
2023-05-04T20:07:12.767Z,99955.63
2023-05-04T20:09:42.494Z,99953.75
2023-05-04T20:12:11.331Z,99947.38
2023-05-04T20:14:41.197Z,99952.00
2023-05-04T20:17:09.708Z,99945.09
2023-05-04T20:19:40.707Z,99945.94
2023-05-04T20:22:09.420Z,99955.91
2023-05-04T20:24:37.821Z,99948.19
2023-05-04T20:27:08.218Z,99939.41
2023-05-04T20:29:36.640Z,99939.47
2023-05-04T20:32:05.658Z,99942.19
2023-05-04T20:34:34.341Z,99951.88
2023-05-04T20:37:02.705Z,99943.06
2023-05-04T20:39:31.155Z,99937.47
2023-05-04T20:41:59.571Z,99950.13
2023-05-04T20:44:29.378Z,99947.19
2023-05-04T20:46:57.849Z,99943.72
2023-05-04T20:49:26.338Z,99951.53
2023-05-04T20:51:55.365Z,99946.50
2023-05-04T20:54:24.206Z,99953.47
2023-05-04T20:56:52.660Z,99940.66
2023-05-04T20:59:21.084Z,99944.16
2023-05-04T21:01:50.952Z,99943.13
2023-05-04T21:04:19.445Z,99942.09
2023-05-04T21:06:48.507Z,99936.78
2023-05-04T21:09:17.145Z,99934.66
2023-05-04T21:11:45.525Z,99930.91
2023-05-04T21:14:13.859Z,99935.25
2023-05-04T21:16:42.219Z,99923.97
2023-05-04T21:19:11.933Z,99927.50
2023-05-04T21:21:41.353Z,99925.09
2023-05-04T21:24:13.324Z,99936.13
2023-05-04T21:26:42.364Z,99934.50
2023-05-04T21:29:14.039Z,99937.47
2023-05-04T21:31:42.874Z,99936.44
2023-05-04T21:34:12.659Z,99931.59
2023-05-04T21:36:41.747Z,99927.88
2023-05-04T21:39:10.109Z,99939.63
2023-05-04T21:41:39.410Z,99922.53
2023-05-04T21:44:07.905Z,99928.44
2023-05-04T21:46:36.416Z,99931.41
2023-05-04T21:49:04.924Z,99928.75
2023-05-04T21:51:34.937Z,99940.25
2023-05-04T21:54:03.365Z,99935.47
2023-05-04T21:56:31.798Z,99930.94
2023-05-04T21:59:00.216Z,99930.13
2023-05-04T22:01:28.867Z,99926.41
2023-05-04T22:03:57.395Z,99934.97
2023-05-04T22:06:25.976Z,99924.81
2023-05-04T22:08:55.666Z,99924.31
2023-05-04T22:11:24.029Z,99925.66
2023-05-04T22:13:53.079Z,99935.81
2023-05-04T22:16:21.483Z,99924.59
2023-05-04T22:18:50.677Z,99938.50
2023-05-04T22:21:19.093Z,99934.78
2023-05-04T22:23:47.538Z,99930.78
2023-05-04T22:26:17.327Z,99920.59
2023-05-04T22:28:45.771Z,99927.03
2023-05-04T22:31:14.218Z,99947.41
2023-05-04T22:33:42.643Z,99930.00
2023-05-04T22:36:12.536Z,99925.19
2023-05-04T22:38:40.918Z,99934.59
2023-05-04T22:41:09.239Z,99933.25
2023-05-04T22:43:38.946Z,99934.81
2023-05-04T22:46:07.370Z,99934.56
2023-05-04T22:48:35.749Z,99932.97
2023-05-04T22:51:04.056Z,99931.09
2023-05-04T22:53:32.537Z,99951.19
2023-05-04T22:56:00.991Z,99945.28
2023-05-04T22:58:29.405Z,99947.97
2023-05-04T23:00:59.208Z,99947.44
2023-05-04T23:03:27.746Z,99950.63
2023-05-04T23:05:59.830Z,99948.50
2023-05-04T23:08:28.203Z,99953.59
2023-05-04T23:10:56.542Z,99957.63
2023-05-04T23:13:25.525Z,99964.56
2023-05-04T23:15:54.436Z,99963.22
2023-05-04T23:18:24.310Z,99957.63
2023-05-04T23:20:52.789Z,99956.28
2023-05-04T23:23:21.161Z,99962.97
2023-05-04T23:25:49.464Z,99956.53
2023-05-04T23:28:17.823Z,99955.22
2023-05-04T23:30:46.231Z,99956.53
2023-05-04T23:33:14.648Z,99952.28
2023-05-04T23:35:44.381Z,99947.72
2023-05-04T23:38:12.827Z,99949.06
2023-05-04T23:40:41.810Z,99948.53
2023-05-04T23:43:10.103Z,99934.88
2023-05-04T23:45:38.446Z,99951.44
2023-05-04T23:48:07.309Z,99956.28
2023-05-04T23:50:35.819Z,99946.13
2023-05-04T23:53:05.509Z,99946.88
2023-05-04T23:55:33.877Z,99951.69
2023-05-04T23:58:02.583Z,99951.16
